Time;durP1;ratioP1;P1;durP2;ratioP2;P2;SDS_P1;SDS_P2;PMS_P1;PMS_P2;Temp;Humidity;BMP_temperature;BMP_pressure;BME280_temperature;BME280_humidity;BME280_pressure;Samples;Min_cycle;Max_cycle;Signal;HPM_P1;HPM_P2
2023/12/17 00:01:00;;;;;;;16.90;9.82;;;;;;;;;;5081828;28;20039;-64
2023/12/17 00:03:26;;;;;;;13.15;8.10;;;;;;;;;;5078013;28;20071;-64
2023/12/17 00:05:53;;;;;;;14.68;8.35;;;;;;;;;;5066921;28;20047;-64
2023/12/17 00:08:20;;;;;;;15.65;8.68;;;;;;;;;;5086064;28;20040;-64
2023/12/17 00:10:52;;;;;;;14.35;7.85;;;;;;;;;;5085840;28;20033;-64
2023/12/17 00:13:19;;;;;;;15.10;7.78;;;;;;;;;;5088185;28;20104;-64
2023/12/17 00:15:45;;;;;;;14.48;7.25;;;;;;;;;;5067545;28;20041;-64
2023/12/17 00:18:14;;;;;;;13.40;7.80;;;;;;;;;;5085309;28;20040;-64
2023/12/17 00:20:40;;;;;;;18.30;8.32;;;;;;;;;;5083125;28;20033;-64
2023/12/17 00:23:06;;;;;;;14.95;7.50;;;;;;;;;;5079220;28;20492;-64
2023/12/17 00:25:32;;;;;;;16.30;8.02;;;;;;;;;;5067798;28;20036;-64
2023/12/17 00:27:58;;;;;;;14.95;7.68;;;;;;;;;;5089083;28;20419;-64
2023/12/17 00:30:24;;;;;;;15.38;7.65;;;;;;;;;;5082379;28;20055;-64
2023/12/17 00:32:50;;;;;;;16.63;7.85;;;;;;;;;;5090119;28;20036;-64
2023/12/17 00:35:16;;;;;;;11.60;7.05;;;;;;;;;;5083812;28;20036;-64
2023/12/17 00:37:42;;;;;;;12.93;7.43;;;;;;;;;;5076780;28;20043;-64
2023/12/17 00:40:09;;;;;;;13.88;7.32;;;;;;;;;;5084353;28;20081;-64
2023/12/17 00:42:35;;;;;;;15.65;7.55;;;;;;;;;;5084428;28;20118;-64
2023/12/17 00:45:01;;;;;;;13.45;6.95;;;;;;;;;;5076404;28;20119;-64
2023/12/17 00:47:26;;;;;;;11.80;7.18;;;;;;;;;;5075075;28;20047;-64
2023/12/17 00:49:53;;;;;;;13.85;7.47;;;;;;;;;;5094635;28;20036;-64
2023/12/17 00:52:22;;;;;;;14.88;6.65;;;;;;;;;;5079558;28;20033;-64
2023/12/17 00:54:51;;;;;;;13.02;7.10;;;;;;;;;;5078609;28;20071;-64
2023/12/17 00:57:17;;;;;;;11.48;6.88;;;;;;;;;;5077314;28;20476;-64
2023/12/17 00:59:43;;;;;;;12.35;6.82;;;;;;;;;;5082796;28;20042;-64
2023/12/17 01:02:09;;;;;;;14.35;7.43;;;;;;;;;;5089840;28;20115;-64
2023/12/17 01:04:35;;;;;;;16.58;7.80;;;;;;;;;;5083558;28;20041;-64
2023/12/17 01:07:01;;;;;;;13.38;7.00;;;;;;;;;;5090520;28;20036;-64
2023/12/17 01:09:27;;;;;;;13.90;7.97;;;;;;;;;;5094384;28;20040;-64
2023/12/17 01:11:54;;;;;;;16.90;7.35;;;;;;;;;;5090937;28;20082;-64
2023/12/17 01:14:20;;;;;;;13.20;7.80;;;;;;;;;;5083635;28;20032;-64
2023/12/17 01:16:46;;;;;;;14.68;7.85;;;;;;;;;;5088472;28;20407;-64
2023/12/17 01:19:12;;;;;;;13.98;7.82;;;;;;;;;;5094164;28;20048;-64
2023/12/17 01:21:38;;;;;;;14.13;7.85;;;;;;;;;;5094200;28;20491;-64
2023/12/17 01:24:05;;;;;;;13.65;7.68;;;;;;;;;;5082169;28;20041;-64
2023/12/17 01:26:30;;;;;;;15.63;7.22;;;;;;;;;;5083941;28;20441;-64
2023/12/17 01:28:56;;;;;;;15.43;7.75;;;;;;;;;;5090468;28;20105;-64
2023/12/17 01:31:22;;;;;;;14.57;7.82;;;;;;;;;;5094350;28;20123;-64
2023/12/17 01:33:48;;;;;;;16.15;8.15;;;;;;;;;;5087188;28;20124;-64
2023/12/17 01:36:14;;;;;;;16.13;7.35;;;;;;;;;;5087563;28;20042;-64
2023/12/17 01:38:40;;;;;;;15.95;7.82;;;;;;;;;;5093656;28;20036;-64
2023/12/17 01:41:06;;;;;;;18.73;8.07;;;;;;;;;;5093531;28;20089;-64
2023/12/17 01:43:33;;;;;;;14.13;8.35;;;;;;;;;;5073186;28;20028;-64
2023/12/17 01:45:59;;;;;;;19.35;8.77;;;;;;;;;;5084797;28;20041;-64
2023/12/17 01:48:26;;;;;;;16.58;8.25;;;;;;;;;;5093745;28;20058;-64
2023/12/17 01:50:52;;;;;;;14.90;8.80;;;;;;;;;;5093923;28;20426;-64
2023/12/17 01:53:18;;;;;;;14.27;7.82;;;;;;;;;;5079594;28;20040;-64
2023/12/17 01:55:45;;;;;;;16.88;8.10;;;;;;;;;;5083691;28;20066;-64
2023/12/17 01:58:11;;;;;;;13.40;7.95;;;;;;;;;;5073899;28;20101;-64
2023/12/17 02:00:38;;;;;;;18.55;9.07;;;;;;;;;;5092407;28;20128;-64
2023/12/17 02:03:04;;;;;;;16.70;9.23;;;;;;;;;;5080621;28;20043;-64
2023/12/17 02:05:34;;;;;;;16.65;9.15;;;;;;;;;;5080486;28;20177;-64
2023/12/17 02:08:00;;;;;;;17.20;8.75;;;;;;;;;;5093331;28;20044;-64
2023/12/17 02:10:26;;;;;;;17.55;8.93;;;;;;;;;;5092645;28;20048;-64
2023/12/17 02:12:52;;;;;;;16.10;8.88;;;;;;;;;;5086381;28;20043;-64
2023/12/17 02:15:18;;;;;;;13.65;7.82;;;;;;;;;;5080146;28;20496;-64
2023/12/17 02:17:44;;;;;;;16.17;9.18;;;;;;;;;;5092933;28;20043;-64
2023/12/17 02:20:11;;;;;;;12.75;8.27;;;;;;;;;;5092835;28;20453;-64
2023/12/17 02:22:37;;;;;;;16.13;9.30;;;;;;;;;;5075748;28;20138;-64
2023/12/17 02:25:03;;;;;;;18.92;9.13;;;;;;;;;;5068849;28;20064;-64
2023/12/17 02:27:29;;;;;;;14.95;8.75;;;;;;;;;;5083659;28;20051;-64
2023/12/17 02:29:55;;;;;;;20.02;9.55;;;;;;;;;;5074676;28;20044;-64
2023/12/17 02:32:22;;;;;;;16.92;9.52;;;;;;;;;;5077365;28;20167;-64
2023/12/17 02:34:48;;;;;;;15.82;8.73;;;;;;;;;;5084277;28;20560;-64
2023/12/17 02:37:15;;;;;;;16.70;9.20;;;;;;;;;;5079583;28;20115;-64
2023/12/17 02:39:41;;;;;;;16.85;8.82;;;;;;;;;;5081160;28;20048;-64
2023/12/17 02:42:07;;;;;;;16.48;8.93;;;;;;;;;;5081670;28;20047;-64
2023/12/17 02:44:33;;;;;;;18.55;8.98;;;;;;;;;;5081533;28;20035;-64
2023/12/17 02:47:00;;;;;;;15.82;8.68;;;;;;;;;;5074839;28;20181;-64
2023/12/17 02:49:26;;;;;;;15.60;9.05;;;;;;;;;;5080606;28;20052;-64
2023/12/17 02:51:52;;;;;;;18.77;9.48;;;;;;;;;;5077503;28;20036;-64
2023/12/17 02:54:19;;;;;;;14.35;8.55;;;;;;;;;;5083718;28;20036;-64
2023/12/17 02:56:45;;;;;;;16.40;8.90;;;;;;;;;;5081038;28;20063;-64
2023/12/17 02:59:12;;;;;;;16.05;8.80;;;;;;;;;;5082113;28;20025;-64
2023/12/17 03:01:42;;;;;;;16.23;8.55;;;;;;;;;;5071598;28;20041;-64
2023/12/17 03:04:08;;;;;;;17.17;8.40;;;;;;;;;;5078413;28;20405;-64
2023/12/17 03:06:34;;;;;;;15.35;8.40;;;;;;;;;;5087702;28;20040;-64
2023/12/17 03:09:00;;;;;;;16.85;8.40;;;;;;;;;;5070554;28;20046;-64
2023/12/17 03:11:26;;;;;;;15.15;8.60;;;;;;;;;;5088374;28;20044;-64
2023/12/17 03:13:52;;;;;;;15.82;9.10;;;;;;;;;;5085522;28;20036;-64
2023/12/17 03:16:18;;;;;;;17.35;8.07;;;;;;;;;;5089659;28;20043;-64
2023/12/17 03:18:44;;;;;;;17.98;8.32;;;;;;;;;;5090290;28;20072;-64
2023/12/17 03:21:10;;;;;;;14.50;9.02;;;;;;;;;;5076735;28;20043;-64
2023/12/17 03:23:36;;;;;;;18.35;9.38;;;;;;;;;;5083332;28;20040;-64
2023/12/17 03:26:06;;;;;;;16.35;8.43;;;;;;;;;;5090021;28;20048;-64
2023/12/17 03:28:33;;;;;;;14.48;8.20;;;;;;;;;;5077367;28;20052;-64
2023/12/17 03:30:59;;;;;;;17.25;8.45;;;;;;;;;;5081910;28;20093;-64
2023/12/17 03:33:25;;;;;;;13.80;7.90;;;;;;;;;;5075823;28;20415;-64
2023/12/17 03:35:51;;;;;;;14.57;8.27;;;;;;;;;;5090850;28;20098;-64
2023/12/17 03:38:17;;;;;;;12.75;8.65;;;;;;;;;;5081638;28;20112;-64
2023/12/17 03:40:43;;;;;;;13.85;8.10;;;;;;;;;;5076070;28;20044;-64
2023/12/17 03:43:09;;;;;;;14.90;8.15;;;;;;;;;;5080108;28;20044;-64
2023/12/17 03:45:35;;;;;;;15.13;7.25;;;;;;;;;;5077983;28;20036;-64
2023/12/17 03:48:02;;;;;;;15.43;8.00;;;;;;;;;;5078774;28;20077;-64
2023/12/17 03:50:28;;;;;;;13.50;8.40;;;;;;;;;;5103581;22;21055;-65
2023/12/17 03:52:54;;;;;;;14.98;8.30;;;;;;;;;;5080018;28;20044;-65
2023/12/17 03:55:20;;;;;;;13.52;8.07;;;;;;;;;;5074899;28;20045;-67
2023/12/17 03:57:47;;;;;;;14.90;8.13;;;;;;;;;;5088588;28;20503;-66
2023/12/17 04:00:13;;;;;;;14.60;8.02;;;;;;;;;;5085526;28;20052;-66
2023/12/17 04:02:39;;;;;;;17.77;8.52;;;;;;;;;;5086376;28;20123;-65
2023/12/17 04:05:06;;;;;;;13.85;8.32;;;;;;;;;;5082253;28;20461;-65
2023/12/17 04:07:32;;;;;;;11.43;7.60;;;;;;;;;;5089869;28;20098;-65
2023/12/17 04:09:58;;;;;;;13.40;7.57;;;;;;;;;;5066214;28;20036;-65
2023/12/17 04:12:24;;;;;;;19.05;8.52;;;;;;;;;;5062575;28;20051;-65
2023/12/17 04:14:50;;;;;;;14.93;8.57;;;;;;;;;;5084341;28;20463;-66
2023/12/17 04:17:16;;;;;;;14.05;7.80;;;;;;;;;;5077357;28;20667;-65
2023/12/17 04:19:42;;;;;;;14.27;7.88;;;;;;;;;;5073223;28;20127;-65
2023/12/17 04:22:08;;;;;;;14.48;8.05;;;;;;;;;;5084716;28;20124;-65
2023/12/17 04:24:34;;;;;;;15.35;8.13;;;;;;;;;;5088369;28;20036;-65
2023/12/17 04:27:00;;;;;;;14.73;9.32;;;;;;;;;;5075395;28;20047;-65
2023/12/17 04:29:26;;;;;;;16.40;8.73;;;;;;;;;;5091137;28;20127;-65
2023/12/17 04:31:52;;;;;;;12.57;8.05;;;;;;;;;;5087871;28;20047;-65
2023/12/17 04:34:18;;;;;;;11.48;7.43;;;;;;;;;;5069729;28;20048;-65
2023/12/17 04:36:44;;;;;;;11.85;8.45;;;;;;;;;;5077665;28;20040;-65
2023/12/17 04:39:11;;;;;;;16.13;8.77;;;;;;;;;;5072960;28;20051;-65
2023/12/17 04:41:40;;;;;;;13.98;9.15;;;;;;;;;;5048324;28;20051;-65
2023/12/17 04:44:07;;;;;;;18.80;9.13;;;;;;;;;;5070083;28;20503;-68
2023/12/17 04:46:33;;;;;;;13.77;9.20;;;;;;;;;;5072700;28;20028;-66
2023/12/17 04:48:59;;;;;;;16.38;8.98;;;;;;;;;;5090901;28;20075;-65
2023/12/17 04:51:25;;;;;;;16.80;9.80;;;;;;;;;;5089924;28;20504;-66
2023/12/17 04:53:51;;;;;;;17.30;9.13;;;;;;;;;;5069798;28;20036;-65
2023/12/17 04:56:18;;;;;;;15.25;9.13;;;;;;;;;;5080905;28;20043;-65
2023/12/17 04:58:44;;;;;;;15.40;8.70;;;;;;;;;;5067258;28;20517;-65
2023/12/17 05:01:10;;;;;;;16.20;9.13;;;;;;;;;;5076468;28;20126;-66
2023/12/17 05:03:36;;;;;;;17.02;9.02;;;;;;;;;;5053807;28;20043;-65
2023/12/17 05:06:02;;;;;;;17.80;9.50;;;;;;;;;;5052253;28;20061;-65
2023/12/17 05:08:28;;;;;;;18.65;9.45;;;;;;;;;;5089997;28;20032;-66
2023/12/17 05:10:55;;;;;;;13.80;8.77;;;;;;;;;;5064531;28;20044;-67
2023/12/17 05:13:21;;;;;;;12.88;9.63;;;;;;;;;;5066937;28;20101;-67
2023/12/17 05:15:47;;;;;;;17.67;8.93;;;;;;;;;;5078152;28;20103;-66
2023/12/17 05:18:13;;;;;;;14.82;8.50;;;;;;;;;;5071561;28;20043;-66
2023/12/17 05:20:39;;;;;;;14.93;9.20;;;;;;;;;;5090472;28;20044;-65
2023/12/17 05:23:05;;;;;;;13.95;8.35;;;;;;;;;;5069015;28;20065;-66
2023/12/17 05:25:31;;;;;;;13.05;8.93;;;;;;;;;;5067805;28;20059;-65
2023/12/17 05:27:57;;;;;;;15.95;9.32;;;;;;;;;;5088886;28;20044;-66
2023/12/17 05:30:23;;;;;;;14.88;9.38;;;;;;;;;;5093986;28;20115;-66
2023/12/17 05:32:50;;;;;;;12.23;8.18;;;;;;;;;;5073042;28;20136;-67
2023/12/17 05:35:16;;;;;;;11.77;8.70;;;;;;;;;;5085220;28;20036;-65
2023/12/17 05:37:42;;;;;;;12.93;8.50;;;;;;;;;;5059602;28;20051;-65
2023/12/17 05:40:08;;;;;;;11.10;7.55;;;;;;;;;;5072991;28;20040;-67
2023/12/17 05:42:34;;;;;;;12.07;7.95;;;;;;;;;;5060655;28;20445;-68
2023/12/17 05:45:00;;;;;;;14.15;8.05;;;;;;;;;;5052814;28;20059;-65
2023/12/17 05:47:26;;;;;;;15.80;8.57;;;;;;;;;;5071910;28;20052;-65
2023/12/17 05:49:52;;;;;;;12.32;8.50;;;;;;;;;;5058416;28;20384;-66
2023/12/17 05:52:18;;;;;;;13.10;7.97;;;;;;;;;;5070208;28;20037;-65
2023/12/17 05:54:45;;;;;;;12.77;7.72;;;;;;;;;;5062916;28;20043;-65
2023/12/17 05:57:11;;;;;;;12.40;7.57;;;;;;;;;;5077694;28;20458;-65
2023/12/17 05:59:37;;;;;;;10.52;7.20;;;;;;;;;;5081441;28;20392;-66
2023/12/17 06:02:03;;;;;;;15.02;7.32;;;;;;;;;;5084462;28;20079;-65
2023/12/17 06:04:29;;;;;;;11.40;7.10;;;;;;;;;;5082374;28;20047;-65
2023/12/17 06:06:55;;;;;;;10.27;6.97;;;;;;;;;;5061686;28;20416;-66
2023/12/17 06:09:22;;;;;;;11.43;7.05;;;;;;;;;;5078762;28;20047;-65
2023/12/17 06:11:49;;;;;;;9.52;6.82;;;;;;;;;;5059050;28;20055;-66
2023/12/17 06:14:17;;;;;;;11.40;6.97;;;;;;;;;;5059441;28;20076;-65
2023/12/17 06:16:43;;;;;;;11.55;7.10;;;;;;;;;;5065317;28;20138;-65
2023/12/17 06:19:09;;;;;;;12.30;6.82;;;;;;;;;;5081742;28;20496;-66
2023/12/17 06:21:35;;;;;;;8.98;6.88;;;;;;;;;;5065522;28;20520;-66
2023/12/17 06:24:03;;;;;;;11.48;7.75;;;;;;;;;;5081227;28;20082;-65
2023/12/17 06:26:29;;;;;;;11.63;7.38;;;;;;;;;;5073107;28;20040;-66
2023/12/17 06:28:55;;;;;;;11.68;7.93;;;;;;;;;;5059021;28;20033;-65
2023/12/17 06:31:22;;;;;;;11.57;7.97;;;;;;;;;;5085963;28;20086;-66
2023/12/17 06:33:48;;;;;;;10.73;7.45;;;;;;;;;;5084866;28;20098;-65
2023/12/17 06:36:14;;;;;;;11.43;7.18;;;;;;;;;;5059201;28;20044;-65
2023/12/17 06:38:40;;;;;;;11.90;7.78;;;;;;;;;;5081490;28;20040;-65
2023/12/17 06:41:08;;;;;;;11.57;7.00;;;;;;;;;;5066404;28;20043;-68
2023/12/17 06:43:36;;;;;;;8.93;7.35;;;;;;;;;;5059807;28;20515;-65
2023/12/17 06:46:02;;;;;;;14.73;7.30;;;;;;;;;;5078712;28;20040;-66
2023/12/17 06:48:28;;;;;;;14.27;7.78;;;;;;;;;;5056506;28;20043;-65
2023/12/17 06:50:54;;;;;;;11.85;7.93;;;;;;;;;;5065350;28;20040;-65
2023/12/17 06:53:20;;;;;;;13.77;9.10;;;;;;;;;;5062874;28;20033;-65
2023/12/17 06:55:46;;;;;;;10.95;8.40;;;;;;;;;;5065211;28;20494;-66
2023/12/17 06:58:12;;;;;;;12.68;8.20;;;;;;;;;;5053731;28;20182;-66
2023/12/17 07:00:38;;;;;;;9.52;8.32;;;;;;;;;;5078290;28;20051;-65
2023/12/17 07:03:04;;;;;;;14.05;9.13;;;;;;;;;;5074605;28;20039;-65
2023/12/17 07:05:30;;;;;;;15.77;8.90;;;;;;;;;;5055976;28;20041;-66
2023/12/17 07:07:56;;;;;;;12.65;8.07;;;;;;;;;;5075417;28;20119;-65
2023/12/17 07:10:22;;;;;;;14.05;8.35;;;;;;;;;;5073822;28;20051;-66
2023/12/17 07:12:48;;;;;;;13.00;7.82;;;;;;;;;;5062471;28;20039;-66
2023/12/17 07:15:14;;;;;;;11.95;8.70;;;;;;;;;;5076377;28;20492;-69
2023/12/17 07:17:40;;;;;;;16.67;7.82;;;;;;;;;;5072265;28;20044;-67
2023/12/17 07:20:10;;;;;;;12.15;8.00;;;;;;;;;;5046327;28;20385;-66
2023/12/17 07:22:36;;;;;;;12.07;8.05;;;;;;;;;;5066154;28;20412;-65
2023/12/17 07:25:02;;;;;;;13.48;7.85;;;;;;;;;;5053717;28;20098;-68
2023/12/17 07:27:28;;;;;;;11.93;7.72;;;;;;;;;;5081725;28;20539;-66
2023/12/17 07:29:54;;;;;;;13.80;8.00;;;;;;;;;;5076044;28;20085;-65
2023/12/17 07:32:20;;;;;;;12.35;8.23;;;;;;;;;;5067641;28;20085;-65
2023/12/17 07:34:46;;;;;;;15.45;9.48;;;;;;;;;;5068128;28;20058;-65
2023/12/17 07:37:12;;;;;;;14.98;8.43;;;;;;;;;;5055037;28;20040;-65
2023/12/17 07:39:38;;;;;;;15.43;8.75;;;;;;;;;;5075817;28;20048;-65
2023/12/17 07:42:04;;;;;;;18.08;9.80;;;;;;;;;;5059832;28;20037;-65
2023/12/17 07:44:30;;;;;;;15.85;9.52;;;;;;;;;;5059049;28;20048;-65
2023/12/17 07:46:57;;;;;;;15.40;9.65;;;;;;;;;;5067848;28;20040;-68
2023/12/17 07:49:23;;;;;;;18.92;10.38;;;;;;;;;;5068474;28;20048;-66
2023/12/17 07:51:49;;;;;;;16.92;10.02;;;;;;;;;;5056530;28;20045;-66
2023/12/17 07:54:16;;;;;;;16.48;10.00;;;;;;;;;;5069143;28;20040;-66
2023/12/17 07:56:42;;;;;;;20.40;10.48;;;;;;;;;;5058336;28;20036;-66
2023/12/17 07:59:08;;;;;;;16.25;10.50;;;;;;;;;;5083842;28;20111;-66
2023/12/17 08:01:34;;;;;;;17.20;10.02;;;;;;;;;;5074994;28;20039;-65
2023/12/17 08:04:00;;;;;;;17.08;9.63;;;;;;;;;;5062037;28;20085;-66
2023/12/17 08:06:26;;;;;;;18.67;10.32;;;;;;;;;;5047477;28;20123;-65
2023/12/17 08:08:53;;;;;;;18.77;10.50;;;;;;;;;;5061473;28;20063;-65
2023/12/17 08:11:19;;;;;;;16.17;10.05;;;;;;;;;;5053538;28;20040;-65
2023/12/17 08:13:46;;;;;;;17.83;9.85;;;;;;;;;;5072832;28;20369;-66
2023/12/17 08:16:12;;;;;;;16.45;9.82;;;;;;;;;;5062026;28;20119;-65
2023/12/17 08:18:38;;;;;;;15.75;9.23;;;;;;;;;;5064001;28;20463;-66
2023/12/17 08:21:04;;;;;;;17.98;9.93;;;;;;;;;;5072787;28;20550;-65
2023/12/17 08:23:30;;;;;;;18.60;9.73;;;;;;;;;;5053644;28;20041;-66
2023/12/17 08:25:57;;;;;;;20.38;8.95;;;;;;;;;;5064727;28;20047;-65
2023/12/17 08:28:23;;;;;;;19.25;8.98;;;;;;;;;;5065185;28;20040;-66
2023/12/17 08:30:49;;;;;;;14.55;7.32;;;;;;;;;;5051966;28;20082;-66
2023/12/17 08:33:15;;;;;;;13.60;6.90;;;;;;;;;;5086572;28;20044;-65
2023/12/17 08:35:42;;;;;;;11.63;6.47;;;;;;;;;;5084589;28;20046;-65
2023/12/17 08:38:08;;;;;;;12.57;6.43;;;;;;;;;;5090998;28;20559;-66
2023/12/17 08:40:34;;;;;;;14.20;5.85;;;;;;;;;;5074227;28;20164;-65
2023/12/17 08:43:04;;;;;;;11.43;6.47;;;;;;;;;;5068469;28;20036;-67
2023/12/17 08:45:30;;;;;;;13.23;6.45;;;;;;;;;;5060494;28;20051;-66
2023/12/17 08:47:56;;;;;;;10.35;5.68;;;;;;;;;;5061075;28;20516;-66
2023/12/17 08:50:22;;;;;;;10.80;5.80;;;;;;;;;;5079032;28;20036;-67
2023/12/17 08:52:48;;;;;;;12.55;5.50;;;;;;;;;;5070885;28;20462;-65
2023/12/17 08:55:15;;;;;;;12.88;5.80;;;;;;;;;;5094866;28;20450;-65
2023/12/17 08:57:41;;;;;;;11.88;5.50;;;;;;;;;;5094515;28;20044;-65
2023/12/17 09:00:07;;;;;;;12.55;5.60;;;;;;;;;;5089766;28;20051;-65
2023/12/17 09:02:35;;;;;;;14.07;6.03;;;;;;;;;;5086921;28;20044;-65
2023/12/17 09:05:01;;;;;;;11.93;5.72;;;;;;;;;;5076656;28;20036;-65
2023/12/17 09:07:27;;;;;;;10.73;5.55;;;;;;;;;;5076277;28;20055;-65
2023/12/17 09:09:53;;;;;;;14.23;5.43;;;;;;;;;;5065638;28;20045;-65
2023/12/17 09:12:19;;;;;;;10.43;5.63;;;;;;;;;;5085236;28;20119;-65
2023/12/17 09:14:45;;;;;;;10.40;5.78;;;;;;;;;;5094038;28;20075;-65
2023/12/17 09:17:11;;;;;;;14.32;6.47;;;;;;;;;;5087485;28;20040;-65
2023/12/17 09:19:37;;;;;;;11.63;6.18;;;;;;;;;;5081153;28;20116;-65
2023/12/17 09:22:03;;;;;;;13.52;6.32;;;;;;;;;;5087582;28;20115;-65
2023/12/17 09:24:29;;;;;;;15.88;7.65;;;;;;;;;;5075794;28;20052;-65
2023/12/17 09:26:55;;;;;;;14.82;7.50;;;;;;;;;;5094814;28;20119;-65
2023/12/17 09:29:21;;;;;;;14.60;7.60;;;;;;;;;;5072322;28;20487;-65
2023/12/17 09:31:48;;;;;;;14.75;7.68;;;;;;;;;;5080522;28;20035;-65
2023/12/17 09:34:14;;;;;;;16.05;9.02;;;;;;;;;;5091146;28;20074;-65
2023/12/17 09:36:41;;;;;;;20.10;9.38;;;;;;;;;;5052101;28;20051;-65
2023/12/17 09:39:07;;;;;;;16.15;9.80;;;;;;;;;;5068378;28;20527;-67
2023/12/17 09:41:33;;;;;;;19.52;10.00;;;;;;;;;;5082884;28;20077;-66
2023/12/17 09:44:00;;;;;;;23.02;11.35;;;;;;;;;;5094030;28;20121;-65
2023/12/17 09:46:26;;;;;;;20.85;11.73;;;;;;;;;;5090731;28;20127;-65
2023/12/17 09:48:52;;;;;;;21.90;12.77;;;;;;;;;;5073500;28;20028;-64
2023/12/17 09:51:18;;;;;;;26.98;12.63;;;;;;;;;;5067519;28;20059;-65
2023/12/17 09:53:44;;;;;;;28.17;13.00;;;;;;;;;;5075669;28;20050;-64
2023/12/17 09:56:14;;;;;;;25.98;13.05;;;;;;;;;;5067121;28;20045;-64
2023/12/17 10:01:11;;;;;;;33.55;15.43;;;;;;;;;;5053526;28;20056;-65
2023/12/17 10:03:37;;;;;;;31.65;15.77;;;;;;;;;;5052268;28;20381;-65
2023/12/17 10:06:03;;;;;;;30.52;14.45;;;;;;;;;;5053948;28;20033;-65
2023/12/17 10:08:30;;;;;;;38.47;16.70;;;;;;;;;;5039796;28;20073;-65
2023/12/17 10:10:56;;;;;;;32.15;16.52;;;;;;;;;;5048080;28;20492;-65
2023/12/17 10:13:23;;;;;;;33.83;17.48;;;;;;;;;;5051877;28;20033;-65
2023/12/17 10:15:49;;;;;;;38.13;17.45;;;;;;;;;;5053017;28;20059;-65
2023/12/17 10:18:16;;;;;;;32.67;15.88;;;;;;;;;;5035326;28;20044;-65
2023/12/17 10:20:43;;;;;;;34.53;17.02;;;;;;;;;;5054169;28;20040;-65
2023/12/17 10:23:09;;;;;;;34.00;17.10;;;;;;;;;;5052388;28;20081;-65
2023/12/17 10:25:35;;;;;;;33.20;15.82;;;;;;;;;;5052058;28;20037;-65
2023/12/17 10:28:02;;;;;;;32.15;16.50;;;;;;;;;;5045851;28;20082;-65
2023/12/17 10:30:31;;;;;;;31.70;15.60;;;;;;;;;;5052320;28;20120;-65
2023/12/17 10:32:58;;;;;;;31.17;15.15;;;;;;;;;;5050114;28;20120;-65
2023/12/17 10:35:25;;;;;;;29.80;14.68;;;;;;;;;;5051924;28;20052;-65
2023/12/17 10:37:58;;;;;;;23.90;12.80;;;;;;;;;;5052195;28;20044;-65
2023/12/17 10:40:24;;;;;;;22.52;12.05;;;;;;;;;;5034346;28;20412;-65
2023/12/17 10:42:52;;;;;;;25.42;13.88;;;;;;;;;;5051622;28;20048;-65
2023/12/17 10:45:19;;;;;;;28.88;13.68;;;;;;;;;;5034471;28;20040;-65
2023/12/17 10:47:47;;;;;;;25.15;12.63;;;;;;;;;;5054042;28;20041;-65
2023/12/17 10:50:13;;;;;;;24.58;13.52;;;;;;;;;;5053852;28;20135;-65
2023/12/17 10:52:39;;;;;;;20.25;12.05;;;;;;;;;;5050499;28;20404;-65
2023/12/17 10:55:05;;;;;;;27.77;14.50;;;;;;;;;;5051649;28;20508;-65
2023/12/17 10:57:33;;;;;;;24.30;13.18;;;;;;;;;;5051213;28;20463;-65
2023/12/17 10:59:59;;;;;;;21.02;11.90;;;;;;;;;;5050584;28;20111;-66
2023/12/17 11:02:26;;;;;;;24.45;12.30;;;;;;;;;;5050710;28;20037;-65
2023/12/17 11:04:56;;;;;;;21.23;12.73;;;;;;;;;;5049293;28;20032;-65
2023/12/17 11:07:22;;;;;;;22.75;12.98;;;;;;;;;;5056263;28;20106;-65
2023/12/17 11:09:49;;;;;;;21.45;12.73;;;;;;;;;;5047738;28;20045;-65
2023/12/17 11:12:19;;;;;;;26.20;12.50;;;;;;;;;;5045052;28;20045;-65
2023/12/17 11:14:46;;;;;;;19.38;11.88;;;;;;;;;;5054817;28;20061;-65
2023/12/17 11:17:12;;;;;;;17.23;11.20;;;;;;;;;;5052127;28;20381;-65
2023/12/17 11:19:58;;;;;;;20.77;11.48;;;;;;;;;;5050785;28;20052;-65
2023/12/17 11:22:24;;;;;;;21.23;11.85;;;;;;;;;;5033858;28;20051;-65
2023/12/17 11:24:51;;;;;;;21.83;13.32;;;;;;;;;;5051185;28;20408;-65
2023/12/17 11:27:19;;;;;;;22.83;12.82;;;;;;;;;;5050940;28;20052;-65
2023/12/17 11:29:45;;;;;;;21.00;12.13;;;;;;;;;;5035945;28;20045;-65
2023/12/17 11:32:12;;;;;;;23.90;12.48;;;;;;;;;;5050760;28;20103;-65
2023/12/17 11:34:38;;;;;;;20.58;12.10;;;;;;;;;;5050768;28;20198;-65
2023/12/17 11:37:04;;;;;;;22.58;12.90;;;;;;;;;;5052592;28;20068;-65
2023/12/17 11:39:30;;;;;;;24.77;13.07;;;;;;;;;;5051515;28;20051;-65
2023/12/17 11:41:57;;;;;;;23.05;12.00;;;;;;;;;;5050374;28;20560;-65
2023/12/17 11:44:23;;;;;;;21.45;12.75;;;;;;;;;;5049605;28;20048;-64
2023/12/17 11:46:49;;;;;;;23.55;13.68;;;;;;;;;;5050835;28;20056;-65
2023/12/17 11:49:25;;;;;;;24.55;12.82;;;;;;;;;;5050650;28;20047;-65
2023/12/17 11:51:51;;;;;;;29.60;14.57;;;;;;;;;;5044131;28;20037;-65
2023/12/17 11:54:23;;;;;;;29.75;15.82;;;;;;;;;;5050887;28;20045;-65
2023/12/17 11:56:49;;;;;;;33.17;16.83;;;;;;;;;;5051091;28;20043;-65
2023/12/17 11:59:16;;;;;;;36.78;16.80;;;;;;;;;;5043379;28;20037;-65
2023/12/17 12:01:42;;;;;;;34.05;16.85;;;;;;;;;;5043288;28;20120;-65
2023/12/17 12:04:08;;;;;;;33.22;16.70;;;;;;;;;;5047222;28;20037;-65
2023/12/17 12:06:34;;;;;;;30.38;15.38;;;;;;;;;;5050941;28;20037;-65
2023/12/17 12:09:00;;;;;;;32.92;16.40;;;;;;;;;;5049627;28;20060;-65
2023/12/17 12:11:36;;;;;;;34.00;16.75;;;;;;;;;;5046003;28;20493;-65
2023/12/17 12:14:02;;;;;;;36.95;17.05;;;;;;;;;;5050597;28;20033;-65
2023/12/17 12:16:28;;;;;;;37.95;17.70;;;;;;;;;;5051106;28;20048;-65
2023/12/17 12:19:03;;;;;;;30.67;16.08;;;;;;;;;;5051000;28;20122;-65
2023/12/17 12:21:30;;;;;;;32.58;15.82;;;;;;;;;;5050279;28;20039;-65
2023/12/17 12:23:56;;;;;;;33.65;15.70;;;;;;;;;;5052489;28;20048;-65
2023/12/17 12:26:24;;;;;;;34.65;16.80;;;;;;;;;;5054225;28;20037;-65
2023/12/17 12:28:59;;;;;;;28.00;15.32;;;;;;;;;;5054422;28;20037;-65
2023/12/17 12:31:26;;;;;;;32.00;15.80;;;;;;;;;;5057686;28;20032;-65
2023/12/17 12:33:53;;;;;;;34.63;16.55;;;;;;;;;;5042040;28;20055;-64
2023/12/17 12:36:19;;;;;;;30.42;15.25;;;;;;;;;;5055089;28;20112;-64
2023/12/17 12:38:45;;;;;;;32.67;15.98;;;;;;;;;;5054820;28;20465;-64
2023/12/17 12:41:12;;;;;;;30.27;15.88;;;;;;;;;;5036512;28;20076;-64
2023/12/17 12:43:41;;;;;;;31.08;15.70;;;;;;;;;;5054072;28;20132;-65
2023/12/17 12:46:08;;;;;;;31.05;14.82;;;;;;;;;;5054807;28;20044;-65
2023/12/17 12:48:36;;;;;;;28.42;15.55;;;;;;;;;;5026779;28;20064;-65
2023/12/17 12:51:02;;;;;;;30.23;15.23;;;;;;;;;;5051691;28;20469;-65
2023/12/17 12:53:28;;;;;;;30.02;15.20;;;;;;;;;;5045798;28;20116;-65
2023/12/17 12:55:54;;;;;;;31.10;16.20;;;;;;;;;;5057254;28;20521;-65
2023/12/17 12:58:20;;;;;;;34.75;16.67;;;;;;;;;;5053733;28;20511;-65
2023/12/17 13:00:47;;;;;;;34.15;17.05;;;;;;;;;;5053443;28;20044;-65
2023/12/17 13:03:13;;;;;;;29.27;15.52;;;;;;;;;;5052829;28;21774;-65
2023/12/17 13:05:39;;;;;;;33.90;17.08;;;;;;;;;;5053894;28;20094;-65
2023/12/17 13:08:06;;;;;;;34.92;15.95;;;;;;;;;;5052212;28;20516;-65
2023/12/17 13:10:32;;;;;;;28.25;14.68;;;;;;;;;;5059804;28;20033;-65
2023/12/17 13:12:58;;;;;;;34.15;16.35;;;;;;;;;;5035241;28;20123;-65
2023/12/17 13:15:24;;;;;;;28.30;14.15;;;;;;;;;;5054318;28;20477;-65
2023/12/17 13:17:50;;;;;;;32.20;15.98;;;;;;;;;;5054304;28;20068;-65
2023/12/17 13:20:16;;;;;;;31.88;16.08;;;;;;;;;;5054085;28;20497;-65
2023/12/17 13:22:42;;;;;;;33.40;15.80;;;;;;;;;;5053980;28;20103;-65
2023/12/17 13:25:09;;;;;;;27.58;13.38;;;;;;;;;;5058101;28;20036;-65
2023/12/17 13:27:35;;;;;;;33.17;15.85;;;;;;;;;;5053970;28;20053;-65
2023/12/17 13:30:02;;;;;;;26.02;14.10;;;;;;;;;;5053176;28;20045;-65
2023/12/17 13:32:28;;;;;;;29.00;14.23;;;;;;;;;;5056325;28;20051;-64
2023/12/17 13:34:54;;;;;;;27.23;14.05;;;;;;;;;;5059234;28;20044;-64
2023/12/17 13:37:20;;;;;;;27.17;13.98;;;;;;;;;;5047472;28;20052;-65
2023/12/17 13:39:46;;;;;;;27.13;13.68;;;;;;;;;;5042059;28;20037;-65
2023/12/17 13:42:12;;;;;;;27.08;14.35;;;;;;;;;;5044412;28;20048;-65
2023/12/17 13:44:38;;;;;;;27.83;13.70;;;;;;;;;;5053108;28;20561;-65
2023/12/17 13:47:04;;;;;;;26.50;13.25;;;;;;;;;;5051702;28;20123;-65
2023/12/17 13:49:39;;;;;;;23.73;12.00;;;;;;;;;;5052774;28;20056;-65
2023/12/17 13:52:06;;;;;;;24.75;12.93;;;;;;;;;;5035560;28;20041;-65
2023/12/17 13:54:32;;;;;;;25.98;14.02;;;;;;;;;;5052975;28;20378;-65
2023/12/17 13:56:58;;;;;;;25.60;13.77;;;;;;;;;;5052932;28;20381;-65
2023/12/17 13:59:24;;;;;;;22.10;12.82;;;;;;;;;;5052295;28;20103;-65
2023/12/17 14:01:50;;;;;;;22.60;12.80;;;;;;;;;;5053469;28;20496;-65
2023/12/17 14:04:16;;;;;;;26.20;13.55;;;;;;;;;;5052308;28;20049;-65
2023/12/17 14:06:42;;;;;;;25.85;13.07;;;;;;;;;;5052992;28;20284;-65
2023/12/17 14:09:08;;;;;;;25.80;13.68;;;;;;;;;;5053244;28;20485;-65
2023/12/17 14:11:38;;;;;;;24.08;12.60;;;;;;;;;;5035686;28;20126;-65
2023/12/17 14:14:05;;;;;;;24.27;12.68;;;;;;;;;;5033742;28;20041;-65
2023/12/17 14:16:31;;;;;;;28.27;13.77;;;;;;;;;;5052478;28;20037;-65
2023/12/17 14:18:57;;;;;;;26.58;13.30;;;;;;;;;;5052908;28;20037;-65
2023/12/17 14:21:23;;;;;;;27.67;14.20;;;;;;;;;;5058906;28;20052;-64
2023/12/17 14:23:51;;;;;;;24.15;13.57;;;;;;;;;;5034681;28;20048;-65